Time;durP1;ratioP1;P1;durP2;ratioP2;P2;SDS_P1;SDS_P2;PMS_P1;PMS_P2;Temp;Humidity;BMP_temperature;BMP_pressure;BME280_temperature;BME280_humidity;BME280_pressure;Samples;Min_cycle;Max_cycle;Signal;HPM_P1;HPM_P2
2021/05/20 00:00:19;;;;;;;11.30;3.58;;;8.30;99.90;;;7.21;92.33;97893.19;5086813;28;20117;-70
2021/05/20 00:02:47;;;;;;;4.72;2.88;;;8.20;99.90;;;7.17;92.53;97901.88;5087009;28;20044;-70
2021/05/20 00:05:16;;;;;;;4.03;2.45;;;8.10;99.90;;;7.13;92.94;97900.25;5079357;28;20044;-70
2021/05/20 00:07:45;;;;;;;5.35;2.40;;;8.20;99.90;;;7.16;92.25;97892.47;5086732;28;20036;-70
2021/05/20 00:10:14;;;;;;;5.70;2.60;;;8.10;99.90;;;7.21;91.57;97897.50;5088772;28;20051;-70
2021/05/20 00:12:43;;;;;;;4.70;2.88;;;8.00;99.90;;;7.17;91.73;97888.97;5080896;28;20044;-70
2021/05/20 00:15:12;;;;;;;4.88;3.25;;;8.00;99.90;;;7.16;91.94;97887.31;5083020;28;20048;-70
2021/05/20 00:17:39;;;;;;;5.13;3.25;;;8.00;99.90;;;7.11;92.16;97892.53;5074822;28;20334;-71
2021/05/20 00:20:07;;;;;;;4.97;3.00;;;8.00;99.90;;;7.24;91.28;97890.53;5079141;28;20094;-71
2021/05/20 00:22:34;;;;;;;6.28;3.60;;;7.90;99.90;;;7.01;92.53;97893.66;5086674;28;20484;-71
2021/05/20 00:25:03;;;;;;;6.70;3.53;;;8.00;99.90;;;7.12;92.12;97893.41;5086640;28;20150;-71
2021/05/20 00:27:30;;;;;;;7.13;4.20;;;7.90;99.90;;;6.97;93.20;97892.03;5085826;28;20357;-71
2021/05/20 00:29:57;;;;;;;6.47;4.88;;;8.00;99.90;;;6.83;93.84;97891.50;5077114;28;20102;-71
2021/05/20 00:32:25;;;;;;;6.65;4.40;;;8.00;99.90;;;6.97;93.09;97904.09;5082149;28;20097;-71
2021/05/20 00:34:53;;;;;;;12.73;5.20;;;8.00;99.90;;;6.95;93.20;97904.09;5077878;28;20097;-71
2021/05/20 00:37:20;;;;;;;7.00;4.85;;;7.90;99.90;;;6.81;93.91;97907.00;5101798;28;20557;-71
2021/05/20 00:39:47;;;;;;;8.00;5.45;;;7.90;99.90;;;6.78;94.29;97904.50;5083745;28;20657;-71
2021/05/20 00:42:14;;;;;;;9.25;6.10;;;7.90;99.90;;;6.77;94.44;97897.63;5069215;28;20048;-71
2021/05/20 00:44:54;;;;;;;9.30;6.72;;;7.80;99.90;;;6.84;94.20;97898.34;5080289;28;20132;-71
2021/05/20 00:47:25;;;;;;;11.50;6.68;;;7.80;99.90;;;6.68;94.75;97906.44;5070619;28;20033;-71
2021/05/20 00:49:52;;;;;;;8.93;5.13;;;7.80;99.90;;;6.82;93.99;97898.41;5073420;28;20043;-71
2021/05/20 00:52:20;;;;;;;13.07;6.00;;;7.70;99.90;;;6.67;94.29;97907.31;5075787;28;20131;-71
2021/05/20 00:54:57;;;;;;;11.30;6.55;;;7.70;99.90;;;6.49;95.76;97918.03;5078397;28;20059;-71
2021/05/20 00:57:25;;;;;;;10.27;6.90;;;7.70;99.90;;;6.56;95.27;97921.31;5068668;28;20121;-71
2021/05/20 00:59:53;;;;;;;9.57;5.68;;;7.70;99.90;;;6.72;93.94;97917.53;5076202;28;20048;-71
2021/05/20 01:02:21;;;;;;;8.10;5.18;;;7.60;99.90;;;6.68;94.39;97909.03;5081677;28;20040;-71
2021/05/20 01:04:49;;;;;;;9.15;5.65;;;7.60;99.90;;;6.61;94.61;97912.59;5083289;28;20060;-71
2021/05/20 01:07:16;;;;;;;9.57;5.22;;;7.70;99.90;;;6.69;94.65;97910.72;5082961;28;20251;-71
2021/05/20 01:09:44;;;;;;;7.53;5.05;;;7.70;99.90;;;6.78;93.55;97909.66;5074628;28;20051;-71
2021/05/20 01:12:12;;;;;;;7.97;5.50;;;7.70;99.90;;;6.75;93.43;97911.44;5075693;28;20130;-71
2021/05/20 01:14:45;;;;;;;10.25;5.45;;;7.70;99.90;;;6.74;93.43;97918.34;5077283;28;20072;-71
2021/05/20 01:17:13;;;;;;;6.28;3.97;;;7.70;99.90;;;6.68;94.03;97911.59;5074670;28;20044;-71
2021/05/20 01:19:44;;;;;;;8.60;4.65;;;7.80;99.90;;;6.64;94.46;97916.88;5081044;28;20047;-71
2021/05/20 01:22:14;;;;;;;8.07;5.22;;;7.80;99.90;;;6.72;93.85;97930.44;5068685;28;20045;-71
2021/05/20 01:24:41;;;;;;;6.40;4.65;;;7.80;99.90;;;6.75;94.03;97914.91;5077674;28;20055;-71
2021/05/20 01:27:10;;;;;;;7.05;4.00;;;7.80;99.90;;;6.81;93.65;97917.31;5070124;28;20394;-71
2021/05/20 01:29:41;;;;;;;10.57;5.05;;;7.80;99.90;;;6.79;93.53;97920.81;5083542;28;20052;-70
2021/05/20 01:32:10;;;;;;;8.05;5.65;;;7.80;99.90;;;6.79;93.82;97913.09;5085038;28;20052;-71
2021/05/20 01:34:39;;;;;;;7.72;5.10;;;7.80;99.90;;;6.75;94.29;97919.19;5067038;28;20056;-71
2021/05/20 01:37:08;;;;;;;9.30;5.38;;;7.90;99.90;;;6.65;94.54;97921.97;5080007;28;20067;-71
2021/05/20 01:39:37;;;;;;;8.40;5.50;;;7.90;99.90;;;6.88;93.85;97916.31;5082437;28;20412;-71
2021/05/20 01:42:05;;;;;;;8.40;4.63;;;7.90;99.90;;;6.94;93.18;97917.91;5080299;28;20078;-71
2021/05/20 01:44:32;;;;;;;10.40;5.40;;;7.80;99.90;;;7.00;92.70;97920.38;5080927;28;20044;-71
2021/05/20 01:46:59;;;;;;;6.82;5.25;;;7.80;99.90;;;6.85;93.43;97920.69;5077857;28;20426;-71
2021/05/20 01:49:27;;;;;;;8.32;6.22;;;7.80;99.90;;;6.61;95.00;97924.66;5082871;28;20036;-71
2021/05/20 01:51:54;;;;;;;9.95;5.63;;;7.90;99.90;;;6.68;94.64;97932.25;5088938;28;20102;-71
2021/05/20 01:54:21;;;;;;;8.15;5.47;;;7.80;99.90;;;6.61;95.15;97934.97;5078144;28;20408;-71
2021/05/20 01:56:48;;;;;;;10.48;6.13;;;7.80;99.90;;;6.61;95.40;97929.81;5081441;28;20419;-70
2021/05/20 01:59:16;;;;;;;12.65;6.55;;;7.80;99.90;;;6.46;96.40;97936.97;5086501;28;20048;-71
2021/05/20 02:01:43;;;;;;;12.38;7.90;;;7.80;99.90;;;6.51;96.40;97929.16;5071926;28;20036;-71
2021/05/20 02:04:10;;;;;;;16.52;7.85;;;7.80;99.90;;;6.43;97.15;97936.19;5070831;28;20040;-71
2021/05/20 02:06:37;;;;;;;12.02;6.25;;;7.80;99.90;;;6.51;96.98;97930.91;5071633;28;20117;-71
2021/05/20 02:09:06;;;;;;;8.45;6.15;;;7.80;99.90;;;6.60;96.46;97936.69;5072267;28;20041;-71
2021/05/20 02:11:34;;;;;;;12.07;8.57;;;7.70;99.90;;;6.48;97.14;97939.53;5075578;28;20077;-71
2021/05/20 02:14:01;;;;;;;13.02;8.20;;;7.70;99.90;;;6.69;96.10;97926.19;5083133;28;20476;-70
2021/05/20 02:16:27;;;;;;;12.23;8.23;;;7.70;99.90;;;6.54;97.04;97935.97;5089134;28;20048;-71
2021/05/20 02:18:54;;;;;;;12.65;8.73;;;7.70;99.90;;;6.55;97.11;97940.28;5077788;28;20500;-71
2021/05/20 02:21:21;;;;;;;11.02;6.95;;;7.70;99.90;;;6.60;96.71;97938.44;5079301;28;20041;-70
2021/05/20 02:23:48;;;;;;;11.32;7.38;;;7.80;99.90;;;6.70;97.11;97945.97;5077742;28;20135;-71
2021/05/20 02:26:15;;;;;;;15.00;9.05;;;7.80;99.90;;;6.70;96.75;97938.22;5088893;28;20067;-71
2021/05/20 02:28:42;;;;;;;14.13;10.32;;;7.80;99.90;;;6.62;97.11;97950.41;5086549;28;20113;-71
2021/05/20 02:31:10;;;;;;;12.68;9.43;;;7.90;99.90;;;6.62;97.25;97949.56;5086863;28;20098;-71
2021/05/20 02:33:37;;;;;;;15.23;11.15;;;7.90;99.90;;;6.66;97.08;97946.03;5079675;28;20338;-71
2021/05/20 02:36:04;;;;;;;16.45;11.25;;;8.00;99.90;;;6.73;96.92;97944.16;5085819;28;20052;-71
2021/05/20 02:38:32;;;;;;;19.15;10.57;;;8.00;99.90;;;6.76;96.60;97954.44;5079401;28;20118;-71
2021/05/20 02:40:59;;;;;;;19.38;10.48;;;8.10;99.90;;;6.76;97.01;97960.44;5069640;28;20568;-70
2021/05/20 02:43:26;;;;;;;15.88;10.93;;;8.10;99.90;;;6.70;97.04;97964.00;5071759;28;20040;-70
2021/05/20 02:45:53;;;;;;;17.40;10.90;;;8.10;99.90;;;6.77;97.11;97958.72;5084992;28;20033;-71
2021/05/20 02:48:20;;;;;;;14.55;9.10;;;8.20;99.90;;;6.99;95.71;97957.38;5080302;28;20097;-71
2021/05/20 02:50:47;;;;;;;16.58;11.38;;;8.10;99.90;;;6.92;95.66;97958.38;5070018;28;20094;-71
2021/05/20 02:53:14;;;;;;;15.98;11.00;;;8.10;99.90;;;7.01;95.50;97960.75;5068990;28;20488;-71
2021/05/20 02:55:41;;;;;;;16.75;12.15;;;8.10;99.90;;;6.95;95.20;97960.88;5071271;28;20040;-71
2021/05/20 02:58:09;;;;;;;16.60;10.45;;;8.10;99.90;;;7.05;95.12;97959.81;5074074;28;20093;-71
2021/05/20 03:00:38;;;;;;;16.55;11.98;;;8.10;99.90;;;7.13;94.37;97960.47;5081601;28;20098;-71
2021/05/20 03:03:05;;;;;;;18.25;11.88;;;8.10;99.90;;;6.90;95.64;97962.72;5074800;28;20036;-71
2021/05/20 03:05:32;;;;;;;17.95;11.57;;;8.10;99.90;;;6.91;96.19;97956.66;5080570;28;20039;-71
2021/05/20 03:08:00;;;;;;;21.55;13.63;;;8.20;99.90;;;6.85;96.45;97968.00;5071479;28;20123;-71
2021/05/20 03:10:27;;;;;;;14.77;10.48;;;8.20;99.90;;;7.15;95.20;97957.03;5084051;28;20098;-71
2021/05/20 03:12:55;;;;;;;19.60;11.93;;;8.20;99.90;;;7.06;95.31;97956.34;5075464;28;20116;-71
2021/05/20 03:15:22;;;;;;;21.77;14.77;;;8.10;99.90;;;6.88;96.57;97962.75;5088372;28;20154;-71
2021/05/20 03:17:50;;;;;;;24.00;15.52;;;8.20;99.90;;;7.01;95.93;97962.50;5088111;28;20509;-71
2021/05/20 03:20:17;;;;;;;25.38;15.90;;;8.20;99.90;;;7.05;95.91;97959.81;5087605;28;20056;-71
2021/05/20 03:22:46;;;;;;;17.73;12.80;;;8.20;99.90;;;7.04;95.85;97960.69;5085176;28;20113;-71
2021/05/20 03:25:18;;;;;;;22.08;15.77;;;8.20;99.90;;;6.89;96.95;97951.56;5075836;28;20048;-71
2021/05/20 03:27:45;;;;;;;22.48;13.57;;;8.30;99.90;;;7.05;96.76;97964.97;5076801;28;20388;-71
2021/05/20 03:30:13;;;;;;;25.30;17.20;;;8.30;99.90;;;6.84;97.41;97962.84;5074148;28;20438;-71
2021/05/20 03:32:41;;;;;;;25.10;16.02;;;8.30;99.90;;;6.92;96.98;97955.81;5073047;28;20106;-71
2021/05/20 03:35:09;;;;;;;21.58;14.68;;;8.30;99.90;;;7.11;96.43;97953.66;5079946;28;20040;-71
2021/05/20 03:37:37;;;;;;;20.63;15.40;;;8.30;99.90;;;7.05;96.17;97956.41;5085787;28;20039;-71
2021/05/20 03:40:06;;;;;;;22.20;16.52;;;8.20;99.90;;;7.08;95.93;97959.75;5086034;28;20044;-71
2021/05/20 03:42:33;;;;;;;22.50;15.77;;;8.30;99.90;;;7.15;95.51;97957.88;5072989;28;20279;-71
2021/05/20 03:45:00;;;;;;;24.52;14.15;;;8.30;99.90;;;7.09;95.81;97956.28;5085608;28;20101;-71
2021/05/20 03:47:27;;;;;;;23.83;16.08;;;8.30;99.90;;;7.08;95.84;97958.91;5075491;28;20032;-71
2021/05/20 03:49:54;;;;;;;26.90;15.63;;;8.30;99.90;;;7.13;95.75;97959.63;5078846;28;20209;-71
2021/05/20 03:52:21;;;;;;;23.45;15.98;;;8.30;99.90;;;7.32;95.39;97960.06;5083419;28;20055;-71
2021/05/20 03:54:49;;;;;;;22.88;15.38;;;8.40;99.90;;;7.36;94.47;97964.25;5084465;28;20077;-71
2021/05/20 03:57:16;;;;;;;23.85;17.45;;;8.40;99.90;;;7.27;94.71;97969.63;5085610;28;20040;-71
2021/05/20 03:59:43;;;;;;;21.73;16.08;;;8.40;99.90;;;7.30;94.56;97967.00;5082672;28;20055;-71
2021/05/20 04:02:10;;;;;;;27.25;16.75;;;8.40;99.90;;;7.38;93.99;97964.25;5086829;28;20480;-71
2021/05/20 04:04:37;;;;;;;27.92;18.80;;;8.40;99.90;;;7.14;94.70;97971.66;5076138;28;20040;-71
2021/05/20 04:07:04;;;;;;;26.65;18.33;;;8.40;99.90;;;7.02;95.97;97979.66;5083239;28;20032;-70
2021/05/20 04:09:31;;;;;;;22.67;16.42;;;8.50;99.90;;;7.06;95.36;97976.97;5086000;28;20472;-70
2021/05/20 04:11:58;;;;;;;23.23;15.40;;;8.40;99.90;;;7.00;96.01;97990.03;5081941;28;20056;-71
2021/05/20 04:14:25;;;;;;;23.88;16.85;;;8.50;99.90;;;7.00;95.88;97990.03;5085099;28;20039;-70
2021/05/20 04:16:52;;;;;;;29.40;16.17;;;8.50;99.90;;;7.03;95.89;98002.88;5069069;28;20054;-71
2021/05/20 04:19:20;;;;;;;21.40;15.85;;;8.50;99.90;;;7.01;95.42;98007.22;5082599;28;20047;-71
2021/05/20 04:21:47;;;;;;;19.58;13.13;;;8.50;99.90;;;7.31;93.56;98000.53;5078973;28;20037;-71
2021/05/20 04:24:14;;;;;;;22.13;14.55;;;8.40;99.90;;;7.10;93.61;98011.34;5077234;28;20043;-71
2021/05/20 04:26:41;;;;;;;14.10;11.20;;;8.40;99.90;;;6.92;93.39;98002.25;5078252;28;20085;-71
2021/05/20 04:29:09;;;;;;;17.38;11.15;;;8.40;99.90;;;7.02;93.22;98002.91;5088231;28;20036;-71
2021/05/20 04:31:36;;;;;;;14.82;10.77;;;8.40;99.90;;;7.08;92.35;98005.34;5084759;28;20051;-71
2021/05/20 04:34:04;;;;;;;15.48;11.85;;;8.30;99.90;;;6.97;92.21;98010.75;5072886;28;20089;-71
2021/05/20 04:36:31;;;;;;;17.92;11.70;;;8.30;99.90;;;6.99;92.32;98005.56;5086908;28;20484;-71
2021/05/20 04:38:58;;;;;;;15.68;12.05;;;8.30;99.90;;;6.97;93.23;98013.31;5080704;28;20491;-71
2021/05/20 04:41:25;;;;;;;16.10;12.27;;;8.30;99.90;;;7.12;92.40;98027.66;5073001;28;20089;-71
2021/05/20 04:43:52;;;;;;;14.95;10.57;;;8.30;99.90;;;7.18;91.65;98024.91;5068314;28;20044;-71
2021/05/20 04:46:19;;;;;;;18.17;10.77;;;8.30;99.90;;;7.06;92.40;98030.34;5067589;28;20052;-71
2021/05/20 04:48:46;;;;;;;16.25;11.85;;;8.40;99.90;;;6.96;92.82;98027.13;5074524;28;20554;-70
2021/05/20 04:51:13;;;;;;;16.60;10.38;;;8.50;99.90;;;6.99;92.92;98024.47;5068535;28;20411;-71
2021/05/20 04:53:40;;;;;;;14.00;11.82;;;8.60;99.90;;;7.23;92.19;98029.97;5074624;28;20517;-71
2021/05/20 04:56:09;;;;;;;13.20;9.45;;;8.50;99.90;;;7.32;91.82;98032.34;5069829;28;20047;-71
2021/05/20 04:58:36;;;;;;;14.80;10.30;;;8.60;99.90;;;7.41;90.36;98026.13;5088382;28;20160;-71
2021/05/20 05:01:03;;;;;;;11.00;8.23;;;8.50;99.90;;;7.44;90.24;98026.09;5076207;28;20033;-71
2021/05/20 05:03:31;;;;;;;9.85;7.72;;;8.50;99.90;;;7.46;90.03;98038.06;5082844;28;20044;-71
2021/05/20 05:05:58;;;;;;;12.65;9.23;;;8.50;99.90;;;7.18;90.71;98037.81;5086354;28;20048;-71
2021/05/20 05:08:25;;;;;;;11.25;9.27;;;8.50;99.90;;;7.41;90.48;98039.06;5068905;28;20112;-71
2021/05/20 05:10:52;;;;;;;12.52;9.02;;;8.70;99.90;;;7.50;89.57;98039.72;5068642;28;20497;-71
2021/05/20 05:13:19;;;;;;;13.43;9.02;;;8.70;99.90;;;7.40;89.59;98037.38;5074078;28;20151;-71
2021/05/20 05:15:47;;;;;;;10.68;8.23;;;8.80;99.90;;;7.58;89.11;98038.69;5088025;28;20345;-71
2021/05/20 05:18:14;;;;;;;12.23;9.60;;;8.90;99.90;;;7.67;88.75;98047.06;5084300;28;20079;-71
2021/05/20 05:20:42;;;;;;;11.55;8.73;;;9.00;99.90;;;7.91;88.62;98050.81;5072905;28;20070;-71
2021/05/20 05:23:09;;;;;;;12.73;8.85;;;9.10;99.90;;;8.15;88.29;98048.50;5070381;28;20063;-71
2021/05/20 05:25:38;;;;;;;13.05;9.15;;;9.30;99.90;;;7.73;88.03;98049.50;5073406;28;20086;-71
2021/05/20 05:28:06;;;;;;;10.75;8.35;;;9.40;99.90;;;7.91;87.63;98050.81;5074358;28;20051;-71
2021/05/20 05:30:34;;;;;;;13.63;8.15;;;9.40;99.90;;;7.70;88.50;98059.91;5073631;28;20119;-71
2021/05/20 05:33:01;;;;;;;10.18;7.30;;;9.40;99.90;;;7.79;88.63;98048.50;5073398;28;20036;-71
2021/05/20 05:35:28;;;;;;;8.60;6.75;;;9.40;99.90;;;8.05;87.47;98055.63;5081164;28;20484;-71
2021/05/20 05:37:56;;;;;;;9.77;7.22;;;9.40;99.90;;;8.00;87.84;98062.63;5072449;28;20052;-71
2021/05/20 05:40:23;;;;;;;10.48;7.03;;;9.40;99.90;;;8.03;87.92;98061.72;5083605;28;20063;-71
2021/05/20 05:42:50;;;;;;;8.88;6.07;;;9.40;99.90;;;8.17;87.68;98068.25;5075093;28;20135;-71
2021/05/20 05:45:17;;;;;;;10.20;7.28;;;9.50;99.90;;;7.89;87.76;98068.09;5073671;28;20031;-71
2021/05/20 05:47:44;;;;;;;10.43;7.28;;;9.50;99.90;;;7.89;87.62;98073.25;5077680;28;20047;-71
2021/05/20 05:50:13;;;;;;;10.63;7.03;;;9.50;99.90;;;8.08;87.48;98076.25;5079663;28;20102;-71
2021/05/20 05:52:42;;;;;;;10.73;6.93;;;9.50;99.90;;;8.17;86.84;98077.75;5084558;28;20040;-71
2021/05/20 05:55:10;;;;;;;9.65;6.15;;;9.60;99.90;;;8.28;86.91;98072.28;5090255;28;20120;-71
2021/05/20 05:57:37;;;;;;;9.85;6.25;;;9.70;99.90;;;8.19;86.19;98073.41;5089374;28;20106;-71
2021/05/20 06:00:06;;;;;;;9.68;7.22;;;9.80;99.90;;;8.14;86.46;98072.63;5077011;28;20098;-71
2021/05/20 06:02:34;;;;;;;11.10;6.68;;;9.80;99.90;;;8.29;86.30;98074.84;5075803;28;20487;-71
2021/05/20 06:05:04;;;;;;;14.80;8.63;;;9.90;99.90;;;8.24;87.13;98071.53;5081020;28;20690;-71
2021/05/20 06:07:35;;;;;;;13.60;6.38;;;9.90;99.90;;;8.32;86.06;98079.09;5076028;28;20069;-71
2021/05/20 06:10:06;;;;;;;10.57;6.97;;;9.90;99.90;;;8.18;86.21;98077.69;5078269;28;20127;-71
2021/05/20 06:12:33;;;;;;;10.40;6.30;;;9.90;99.90;;;8.57;85.29;98081.91;5071698;28;20044;-69
2021/05/20 06:15:00;;;;;;;8.10;6.45;;;9.80;99.90;;;8.40;85.71;98071.16;5093139;28;20062;-71
2021/05/20 06:17:27;;;;;;;8.73;6.05;;;9.80;99.90;;;8.29;85.55;98072.25;5074047;28;20044;-70
2021/05/20 06:19:54;;;;;;;11.65;7.28;;;9.80;99.90;;;8.48;85.39;98067.47;5079038;28;20052;-69
2021/05/20 06:22:21;;;;;;;9.35;7.20;;;9.80;99.90;;;8.59;84.38;98068.03;5073315;28;20414;-69
2021/05/20 06:24:48;;;;;;;8.60;7.00;;;9.70;99.90;;;8.73;84.83;98078.03;5101477;28;20040;-70
2021/05/20 06:27:15;;;;;;;10.00;7.53;;;9.80;99.90;;;8.75;84.43;98072.81;5111541;28;20039;-69
2021/05/20 06:29:42;;;;;;;9.82;7.65;;;9.90;99.90;;;9.13;84.37;98070.91;5071825;28;20094;-70
2021/05/20 06:32:09;;;;;;;11.85;7.93;;;10.10;99.90;;;8.55;85.06;98068.16;5070021;28;20117;-70
2021/05/20 06:34:36;;;;;;;10.93;6.72;;;10.30;99.90;;;8.64;83.59;98074.84;5071027;28;20040;-70
2021/05/20 06:37:04;;;;;;;12.50;8.13;;;10.40;99.90;;;8.39;84.80;98072.88;5072310;28;20041;-70
2021/05/20 06:39:31;;;;;;;14.07;6.80;;;10.30;99.90;;;8.80;84.05;98070.94;5073529;28;20052;-70
2021/05/20 06:41:58;;;;;;;9.60;7.30;;;10.30;99.90;;;8.85;84.01;98073.41;5076012;28;20051;-70
2021/05/20 06:44:25;;;;;;;8.25;6.45;;;10.30;99.90;;;8.97;82.79;98075.66;5070497;28;20068;-70
2021/05/20 06:46:52;;;;;;;11.10;6.05;;;10.20;99.90;;;9.11;81.39;98076.13;5079215;28;20043;-70
2021/05/20 06:49:19;;;;;;;8.25;6.00;;;10.20;99.90;;;9.25;80.68;98082.66;5089266;28;20044;-70
2021/05/20 06:51:46;;;;;;;7.45;5.13;;;10.40;99.90;;;9.57;79.59;98087.72;5071484;28;20092;-70
2021/05/20 06:54:15;;;;;;;8.30;5.32;;;10.40;99.90;;;9.97;80.56;98088.22;5079007;28;20044;-70
2021/05/20 06:56:43;;;;;;;7.43;5.53;;;10.70;99.90;;;10.57;78.65;98075.88;5076203;28;20036;-70
2021/05/20 07:01:56;;;;;;;8.20;4.88;;;11.60;99.90;;;10.93;74.86;98080.69;5075134;28;20337;-70
2021/05/20 07:04:23;;;;;;;8.00;4.47;;;12.00;99.90;;;11.49;74.85;98083.78;5074626;28;20128;-70
2021/05/20 07:06:50;;;;;;;10.70;4.32;;;12.50;99.90;;;11.29;71.75;98087.13;5073416;28;20451;-70
2021/05/20 07:09:25;;;;;;;8.85;5.20;;;13.00;99.90;;;10.52;73.52;98099.41;5079933;28;20131;-70
2021/05/20 07:11:53;;;;;;;7.53;4.43;;;13.00;99.90;;;10.45;75.09;98098.75;5072092;28;20036;-70
2021/05/20 07:14:20;;;;;;;6.50;4.15;;;12.70;99.90;;;10.77;72.52;98090.78;5080278;28;20436;-70
2021/05/20 07:16:48;;;;;;;6.80;4.57;;;12.60;99.90;;;10.74;72.18;98090.88;5079108;28;20051;-70
2021/05/20 07:19:19;;;;;;;7.20;4.00;;;12.40;99.90;;;11.35;72.14;98088.66;5068444;28;20526;-70
2021/05/20 07:21:50;;;;;;;5.65;3.67;;;12.50;99.90;;;11.43;71.83;98086.63;5079919;28;20043;-70
2021/05/20 07:24:18;;;;;;;5.93;4.15;;;12.90;99.90;;;10.63;73.73;98097.28;5074698;28;20042;-70
2021/05/20 07:26:51;;;;;;;7.22;3.88;;;12.90;99.90;;;11.23;72.17;98089.94;5080915;28;20185;-70
2021/05/20 07:29:18;;;;;;;8.18;4.70;;;12.60;99.90;;;10.52;75.38;98099.41;5083122;28;20499;-70
2021/05/20 07:31:45;;;;;;;5.07;3.60;;;12.50;99.90;;;10.44;76.00;98097.06;5084601;28;20166;-70
2021/05/20 07:34:12;;;;;;;7.82;4.95;;;12.30;99.90;;;10.16;76.14;98099.69;5065926;28;20094;-70
2021/05/20 07:36:39;;;;;;;5.85;3.85;;;12.00;99.90;;;10.57;74.78;98096.66;5080202;28;20553;-70
2021/05/20 07:39:07;;;;;;;6.13;4.50;;;11.60;99.90;;;10.02;76.25;98102.72;5074740;28;20472;-70
2021/05/20 07:41:34;;;;;;;7.60;4.40;;;11.60;99.90;;;9.91;78.89;98106.56;5070689;28;20059;-70
2021/05/20 07:44:04;;;;;;;7.75;3.47;;;11.70;99.90;;;9.83;73.99;98101.63;5087029;28;20124;-70
2021/05/20 07:46:31;;;;;;;7.85;3.45;;;11.60;99.90;;;9.72;75.19;98107.13;5080773;28;20062;-70
2021/05/20 07:48:58;;;;;;;4.82;2.85;;;11.70;99.90;;;10.07;72.36;98109.53;5077837;28;20120;-70
2021/05/20 07:51:25;;;;;;;7.15;3.47;;;11.70;99.90;;;9.71;73.18;98102.00;5071786;28;20140;-70
2021/05/20 07:53:52;;;;;;;4.85;3.45;;;11.90;99.90;;;10.08;74.52;98111.22;5077824;28;20105;-70
2021/05/20 07:56:19;;;;;;;5.05;3.63;;;12.20;99.90;;;10.87;71.52;98103.34;5074738;28;20044;-70
2021/05/20 07:58:52;;;;;;;8.25;3.72;;;12.20;99.90;;;11.40;73.04;98099.72;5081213;28;20056;-70
2021/05/20 08:01:21;;;;;;;7.32;4.07;;;12.50;99.90;;;10.92;71.82;98111.00;5080804;28;20055;-70
2021/05/20 08:04:00;;;;;;;4.70;2.80;;;13.00;99.90;;;10.67;69.55;98105.81;5078022;28;20037;-70
2021/05/20 08:06:34;;;;;;;3.85;2.60;;;12.80;99.90;;;10.52;69.77;98104.59;5081663;28;20036;-70
2021/05/20 08:09:28;;;;;;;5.55;3.38;;;12.90;99.90;;;10.54;70.46;98112.34;5083259;28;20036;-70
2021/05/20 08:11:49;;;;;;;6.05;2.53;;;12.90;99.90;;;11.18;69.87;98106.63;5084583;28;20097;-70
2021/05/20 08:14:16;;;;;;;5.57;2.38;;;13.10;99.90;;;11.23;68.48;98097.75;5069796;28;20087;-70
2021/05/20 08:16:43;;;;;;;5.95;2.80;;;13.30;99.90;;;10.97;67.58;98105.63;5070536;28;20468;-70
2021/05/20 08:19:10;;;;;;;7.05;2.70;;;13.50;99.90;;;11.51;65.90;98102.75;5069484;28;20584;-70
2021/05/20 08:21:37;;;;;;;4.72;2.60;;;14.10;99.90;;;11.77;66.08;98100.06;5076711;28;20051;-70
2021/05/20 08:24:06;;;;;;;4.40;2.20;;;14.50;99.90;;;13.66;62.75;98097.25;5081505;28;20115;-70
2021/05/20 08:26:33;;;;;;;3.28;2.20;;;14.90;99.90;;;12.96;62.66;98091.69;5075634;28;20488;-70
2021/05/20 08:29:00;;;;;;;32.00;4.40;;;15.40;99.90;;;14.57;62.74;98084.16;5086673;28;20063;-70
2021/05/20 08:31:29;;;;;;;3.50;2.15;;;16.00;99.90;;;14.11;57.73;98091.59;5080512;28;20048;-70
2021/05/20 08:33:56;;;;;;;4.13;2.17;;;16.60;99.90;;;13.63;60.18;98085.19;5071902;28;20041;-70
2021/05/20 08:36:23;;;;;;;4.20;2.58;;;16.70;99.90;;;12.62;64.41;98089.72;5077425;28;20484;-70
2021/05/20 08:38:50;;;;;;;4.10;2.88;;;16.00;99.90;;;11.78;68.06;98101.75;5078665;28;20368;-70
2021/05/20 08:41:20;;;;;;;3.80;2.33;;;15.20;99.90;;;12.66;65.51;98083.47;5083429;28;20036;-70
2021/05/20 08:43:47;;;;;;;4.75;2.50;;;14.20;99.90;;;11.78;65.92;98092.19;5080845;28;20041;-69
2021/05/20 08:46:25;;;;;;;22.33;3.33;;;13.80;99.90;;;11.89;66.56;98097.88;5084522;28;20252;-70
2021/05/20 08:48:52;;;;;;;3.88;2.05;;;13.70;99.90;;;11.75;66.49;98097.53;5079745;28;20472;-69
2021/05/20 08:51:19;;;;;;;3.25;1.75;;;13.80;99.90;;;11.99;66.10;98092.28;5073742;28;20093;-70
2021/05/20 08:53:47;;;;;;;5.20;2.35;;;13.90;99.90;;;12.33;64.37;98083.97;5079346;28;20459;-69
2021/05/20 08:56:17;;;;;;;5.00;2.22;;;13.80;99.90;;;12.59;62.51;98089.81;5076273;28;20040;-70
2021/05/20 08:58:44;;;;;;;4.65;1.67;;;13.90;99.90;;;13.21;63.12;98085.41;5087650;28;20158;-70
2021/05/20 09:01:39;;;;;;;5.25;2.08;;;14.20;99.90;;;12.06;64.60;98094.56;5090119;28;20048;-70
2021/05/20 09:04:08;;;;;;;3.55;1.75;;;14.70;99.90;;;11.87;64.29;98096.19;5089743;28;20101;-70
2021/05/20 09:06:48;;;;;;;2.42;1.50;;;14.70;99.90;;;12.41;63.36;98087.09;5076996;28;20040;-70
2021/05/20 09:09:20;;;;;;;3.72;1.95;;;14.50;99.90;;;12.40;64.08;98087.16;5074008;28;20037;-69
2021/05/20 09:11:57;;;;;;;2.50;1.48;;;14.30;99.90;;;11.64;65.14;98099.69;5077892;28;20091;-69
2021/05/20 09:14:38;;;;;;;2.97;1.90;;;14.00;99.90;;;11.84;66.32;98104.97;5088477;28;20052;-70
2021/05/20 09:17:17;;;;;;;3.60;1.60;;;13.60;99.90;;;11.48;68.50;98102.03;5075897;28;20062;-70
2021/05/20 09:19:58;;;;;;;3.65;1.80;;;13.60;99.90;;;11.47;66.96;98105.53;5075962;28;20048;-70
2021/05/20 09:22:26;;;;;;;4.60;1.58;;;13.70;99.90;;;11.85;66.11;98093.66;5079593;28;20047;-71
2021/05/20 09:25:00;;;;;;;2.88;1.48;;;13.90;99.90;;;12.07;65.28;98092.84;5081524;28;20036;-71
2021/05/20 09:27:45;;;;;;;2.90;1.80;;;13.60;99.90;;;11.78;67.75;98091.38;5083471;28;20040;-71
2021/05/20 09:30:18;;;;;;;2.90;1.60;;;13.50;99.90;;;11.92;69.13;98095.13;5081751;28;20041;-70
2021/05/20 09:32:57;;;;;;;3.88;1.73;;;13.60;99.90;;;11.76;68.22;98104.41;5081315;28;20051;-69
2021/05/20 09:35:42;;;;;;;3.63;1.77;;;13.50;99.90;;;11.61;68.93;98100.66;5079786;28;20040;-70
2021/05/20 09:38:19;;;;;;;2.92;1.63;;;13.40;99.90;;;11.70;66.71;98095.13;5073312;28;20483;-70
2021/05/20 09:40:55;;;;;;;4.63;1.80;;;13.10;99.90;;;12.06;66.74;98094.56;5081717;28;20049;-69
2021/05/20 09:43:38;;;;;;;4.20;1.63;;;13.00;99.90;;;11.98;66.78;98101.03;5078381;28;20536;-70
2021/05/20 09:46:14;;;;;;;2.72;1.80;;;13.20;99.90;;;11.73;65.45;98096.75;5073435;28;20148;-70
2021/05/20 09:48:48;;;;;;;1.88;1.08;;;13.30;99.90;;;12.08;64.01;98097.13;5075106;28;20048;-70
2021/05/20 09:51:27;;;;;;;1.45;0.80;;;13.10;99.90;;;11.50;63.37;98098.47;5075533;28;20055;-70
2021/05/20 09:53:55;;;;;;;1.63;0.90;;;13.10;99.90;;;11.62;64.25;98094.56;5077806;28;20114;-70
2021/05/20 09:56:32;;;;;;;2.53;1.10;;;13.10;99.90;;;12.01;64.25;98095.69;5084261;28;20088;-70
2021/05/20 09:58:59;;;;;;;2.10;1.30;;;13.20;99.90;;;11.40;65.48;98096.28;5070941;28;20059;-70
2021/05/20 10:01:26;;;;;;;2.58;1.13;;;13.40;99.90;;;11.82;65.09;98093.78;5087240;28;20132;-70
2021/05/20 10:03:56;;;;;;;2.08;1.42;;;13.50;99.90;;;11.41;63.75;98095.38;5080969;28;20101;-70
2021/05/20 10:06:49;;;;;;;3.90;1.50;;;13.80;99.90;;;12.05;63.21;98089.47;5070827;28;20419;-70
2021/05/20 10:09:16;;;;;;;;;;;14.10;99.90;;;12.06;62.47;98094.56;5076518;28;20510;-70
2021/05/20 10:11:44;;;;;;;2.00;1.33;;;14.40;99.90;;;12.01;63.45;98090.47;5071692;28;19928;-70
2021/05/20 10:14:11;;;;;;;3.08;1.65;;;14.80;99.90;;;12.87;62.39;98087.72;5069542;28;20045;-70
2021/05/20 10:16:39;;;;;;;4.28;1.90;;;14.80;99.90;;;12.92;60.73;98075.34;5070917;28;20040;-71
2021/05/20 10:19:07;;;;;;;2.97;1.52;;;15.00;99.90;;;13.33;58.86;98083.09;5070441;28;20492;-71
2021/05/20 10:21:34;;;;;;;5.20;2.60;;;14.90;99.90;;;12.97;61.00;98077.75;5071978;28;20048;-71
2021/05/20 10:24:05;;;;;;;3.15;1.90;;;15.40;99.90;;;12.47;62.36;98088.59;5070066;28;20048;-71
2021/05/20 10:26:40;;;;;;;2.67;1.45;;;15.90;99.90;;;13.86;60.81;98072.84;5071823;28;20041;-71
2021/05/20 10:29:08;;;;;;;2.42;1.42;;;15.60;99.90;;;13.32;60.15;98075.34;5071769;28;20040;-71
2021/05/20 10:31:41;;;;;;;2.47;1.42;;;16.00;99.90;;;14.25;59.22;98067.44;5074283;28;20059;-71